Time;durP1;ratioP1;P1;durP2;ratioP2;P2;SDS_P1;SDS_P2;PMS_P1;PMS_P2;Temp;Humidity;BMP_temperature;BMP_pressure;BME280_temperature;BME280_humidity;BME280_pressure;Samples;Min_cycle;Max_cycle;Signal;HPM_P1;HPM_P2
2023/08/09 00:00:10;;;;;;;16.10;7.25;;;14.10;99.90;;;;;;5050128;28;20033;-63
2023/08/09 00:02:35;;;;;;;11.15;7.30;;;14.20;99.90;;;;;;5049072;28;20421;-63
2023/08/09 00:05:01;;;;;;;15.20;7.32;;;14.20;99.90;;;;;;5049230;28;20037;-64
2023/08/09 00:07:27;;;;;;;12.68;6.88;;;14.20;99.90;;;;;;5050719;28;20037;-64
2023/08/09 00:09:53;;;;;;;14.45;7.25;;;14.20;99.90;;;;;;5049426;28;20453;-64
2023/08/09 00:12:18;;;;;;;11.65;7.40;;;14.30;99.90;;;;;;5051049;28;20041;-64
2023/08/09 00:14:44;;;;;;;13.75;7.60;;;14.30;99.90;;;;;;5048649;28;20037;-64
2023/08/09 00:17:09;;;;;;;13.93;7.93;;;14.20;99.90;;;;;;5050671;28;20455;-64
2023/08/09 00:19:35;;;;;;;11.55;7.70;;;14.30;99.90;;;;;;5050470;28;20048;-64
2023/08/09 00:22:00;;;;;;;12.70;7.65;;;14.30;99.90;;;;;;5073132;22;20049;-66
2023/08/09 00:24:26;;;;;;;17.00;7.30;;;14.30;99.90;;;;;;5066345;28;20039;-66
2023/08/09 00:26:52;;;;;;;12.95;8.27;;;14.30;99.90;;;;;;5069813;28;20025;-66
2023/08/09 00:29:17;;;;;;;14.40;8.68;;;14.30;99.90;;;;;;5069544;28;20028;-67
2023/08/09 00:31:43;;;;;;;15.20;8.00;;;14.30;99.90;;;;;;5070271;28;20107;-67
2023/08/09 00:34:08;;;;;;;15.20;8.40;;;14.30;99.90;;;;;;5066465;28;20040;-67
2023/08/09 00:36:34;;;;;;;15.73;8.43;;;14.40;99.90;;;;;;5063958;28;20421;-67
2023/08/09 00:39:00;;;;;;;14.43;8.15;;;14.30;99.90;;;;;;5068266;28;20123;-67
2023/08/09 00:41:26;;;;;;;16.00;8.60;;;14.30;99.90;;;;;;5065254;28;20047;-67
2023/08/09 00:43:52;;;;;;;13.88;8.02;;;14.30;99.90;;;;;;5069174;28;20032;-67
2023/08/09 00:46:17;;;;;;;15.75;8.88;;;14.30;99.90;;;;;;5068633;28;20044;-67
2023/08/09 00:48:43;;;;;;;17.58;8.80;;;14.20;99.90;;;;;;5067102;28;20036;-67
2023/08/09 00:51:10;;;;;;;15.90;9.77;;;14.20;99.90;;;;;;5067014;28;20029;-67
2023/08/09 00:53:36;;;;;;;13.65;9.60;;;14.30;99.90;;;;;;5065541;28;20036;-66
2023/08/09 00:56:02;;;;;;;14.55;8.70;;;14.20;99.90;;;;;;5051031;28;20048;-67
2023/08/09 00:58:28;;;;;;;12.95;9.50;;;14.20;99.90;;;;;;5069686;28;20032;-67
2023/08/09 01:00:53;;;;;;;13.40;8.48;;;14.20;99.90;;;;;;5053319;28;20048;-67
2023/08/09 01:03:19;;;;;;;15.25;9.43;;;14.10;99.90;;;;;;5060707;28;20040;-67
2023/08/09 01:05:55;;;;;;;17.05;9.30;;;14.10;99.90;;;;;;5069273;28;20044;-67
2023/08/09 01:08:28;;;;;;;14.93;9.25;;;14.00;99.90;;;;;;5057816;28;20414;-67
2023/08/09 01:11:08;;;;;;;17.20;9.52;;;14.10;99.90;;;;;;5056208;28;20044;-67
2023/08/09 01:13:37;;;;;;;14.95;9.57;;;14.00;99.90;;;;;;5072585;28;20517;-67
2023/08/09 01:16:06;;;;;;;16.27;9.45;;;13.90;99.90;;;;;;5073687;28;20097;-67
2023/08/09 01:18:33;;;;;;;15.35;9.23;;;13.90;99.90;;;;;;5072576;28;20413;-67
2023/08/09 01:21:00;;;;;;;15.90;9.85;;;13.90;99.90;;;;;;5063832;28;20033;-67
2023/08/09 01:23:35;;;;;;;15.57;10.40;;;13.90;99.90;;;;;;5072918;28;20029;-67
2023/08/09 01:26:01;;;;;;;24.20;10.43;;;13.90;99.90;;;;;;5065781;28;20048;-66
2023/08/09 01:28:26;;;;;;;20.42;11.05;;;13.80;99.90;;;;;;5065802;28;20036;-67
2023/08/09 01:30:52;;;;;;;21.45;10.73;;;13.80;99.90;;;;;;5072509;28;20033;-67
2023/08/09 01:33:18;;;;;;;13.73;10.13;;;13.80;99.90;;;;;;5073808;28;20079;-67
2023/08/09 01:36:02;;;;;;;17.85;12.23;;;13.80;99.90;;;;;;5064992;28;20036;-67
2023/08/09 01:38:35;;;;;;;19.27;11.77;;;13.80;99.90;;;;;;5069714;28;20036;-67
2023/08/09 01:41:03;;;;;;;19.20;12.55;;;13.80;99.90;;;;;;5070426;28;20436;-67
2023/08/09 01:43:30;;;;;;;18.20;10.90;;;13.80;99.90;;;;;;5073545;28;20064;-66
2023/08/09 01:45:56;;;;;;;18.65;10.85;;;13.70;99.90;;;;;;5064109;28;20064;-67
2023/08/09 01:48:21;;;;;;;20.98;11.13;;;13.70;99.90;;;;;;5072882;28;20086;-67
2023/08/09 01:50:48;;;;;;;22.75;12.13;;;13.80;99.90;;;;;;5044927;28;20036;-66
2023/08/09 01:53:13;;;;;;;18.35;11.40;;;13.70;99.90;;;;;;5063743;28;20127;-67
2023/08/09 01:55:40;;;;;;;20.88;11.60;;;13.70;99.90;;;;;;5062818;28;20091;-67
2023/08/09 01:58:06;;;;;;;15.75;10.93;;;13.70;99.90;;;;;;5076558;28;20077;-67
2023/08/09 02:00:32;;;;;;;18.48;10.77;;;13.70;99.90;;;;;;5085182;28;20047;-67
2023/08/09 02:02:58;;;;;;;21.80;12.82;;;13.70;99.90;;;;;;5065899;28;20041;-67
2023/08/09 02:05:24;;;;;;;18.42;12.27;;;13.70;99.90;;;;;;5067231;28;20356;-67
2023/08/09 02:07:50;;;;;;;20.42;12.20;;;13.70;99.90;;;;;;5072867;28;20036;-67
2023/08/09 02:10:16;;;;;;;23.23;12.45;;;13.80;99.90;;;;;;5072384;28;20044;-67
2023/08/09 02:12:47;;;;;;;21.00;13.30;;;13.70;99.90;;;;;;5071938;28;20398;-66
2023/08/09 02:15:15;;;;;;;20.95;12.63;;;13.70;99.90;;;;;;5070799;28;20047;-67
2023/08/09 02:17:42;;;;;;;22.13;12.63;;;13.70;99.90;;;;;;5072257;28;20040;-67
2023/08/09 02:20:09;;;;;;;23.52;13.25;;;13.70;99.90;;;;;;5072930;28;20040;-67
2023/08/09 02:22:39;;;;;;;22.92;14.05;;;13.80;99.90;;;;;;5054507;28;20045;-67
2023/08/09 02:25:10;;;;;;;22.83;13.43;;;13.80;99.90;;;;;;5070834;28;20048;-67
2023/08/09 02:27:36;;;;;;;;;;;13.70;99.90;;;;;;5054927;28;20045;-67
2023/08/09 02:30:03;;;;;;;21.35;14.00;;;13.70;99.90;;;;;;5063564;28;20038;-67
2023/08/09 02:32:30;;;;;;;22.52;12.88;;;13.70;99.90;;;;;;5071280;28;20489;-67
2023/08/09 02:34:55;;;;;;;23.15;12.82;;;13.70;99.90;;;;;;5062328;28;20518;-67
2023/08/09 02:37:22;;;;;;;22.30;13.18;;;13.70;99.90;;;;;;5072242;28;20032;-67
2023/08/09 02:39:47;;;;;;;20.67;13.10;;;13.70;99.90;;;;;;5072766;28;20379;-67
2023/08/09 02:42:13;;;;;;;21.08;12.95;;;13.70;99.90;;;;;;5067773;28;20135;-67
2023/08/09 02:44:39;;;;;;;21.65;13.27;;;13.70;99.90;;;;;;5066419;28;20037;-67
2023/08/09 02:47:05;;;;;;;21.60;13.48;;;13.70;99.90;;;;;;5063592;28;20052;-66
2023/08/09 02:49:30;;;;;;;19.40;13.30;;;13.70;99.90;;;;;;5072614;28;20040;-66
2023/08/09 02:51:56;;;;;;;21.23;13.32;;;13.70;99.90;;;;;;5071898;28;20045;-67
2023/08/09 02:54:22;;;;;;;22.58;14.63;;;13.70;99.90;;;;;;5071240;28;20045;-67
2023/08/09 02:56:47;;;;;;;21.73;14.20;;;13.70;99.90;;;;;;5067341;28;20034;-66
2023/08/09 02:59:13;;;;;;;24.92;14.55;;;13.70;99.90;;;;;;5063800;28;20033;-67
2023/08/09 03:01:39;;;;;;;26.52;14.48;;;13.70;99.90;;;;;;5071025;28;20033;-67
2023/08/09 03:04:04;;;;;;;22.30;13.80;;;13.60;99.90;;;;;;5070944;28;20044;-67
2023/08/09 03:06:30;;;;;;;22.58;14.57;;;13.60;99.90;;;;;;5066278;28;20116;-67
2023/08/09 03:08:56;;;;;;;23.25;13.55;;;13.60;99.90;;;;;;5067171;28;20047;-67
2023/08/09 03:11:24;;;;;;;24.80;13.40;;;13.70;99.90;;;;;;5060468;28;20033;-67
2023/08/09 03:13:50;;;;;;;31.92;14.20;;;13.60;99.90;;;;;;5070188;28;20098;-67
2023/08/09 03:16:16;;;;;;;22.58;13.63;;;13.50;99.90;;;;;;5070320;28;20119;-67
2023/08/09 03:18:42;;;;;;;23.63;14.35;;;13.60;99.90;;;;;;5070202;28;20193;-67
2023/08/09 03:21:08;;;;;;;20.42;14.32;;;13.60;99.90;;;;;;5070809;28;20040;-67
2023/08/09 03:23:34;;;;;;;24.05;13.70;;;13.60;99.90;;;;;;5061825;28;21768;-67
2023/08/09 03:26:00;;;;;;;26.10;14.10;;;13.60;99.90;;;;;;5069099;28;20080;-67
2023/08/09 03:28:27;;;;;;;23.08;13.50;;;13.60;99.90;;;;;;5070112;28;20048;-67
2023/08/09 03:30:53;;;;;;;23.42;14.00;;;13.60;99.90;;;;;;5062646;28;20036;-67
2023/08/09 03:33:18;;;;;;;34.28;13.18;;;13.60;99.90;;;;;;5063017;28;20078;-67
2023/08/09 03:35:44;;;;;;;22.00;13.35;;;13.60;99.90;;;;;;5066836;28;20119;-67
2023/08/09 03:38:10;;;;;;;19.05;12.80;;;13.50;99.90;;;;;;5061910;28;20055;-67
2023/08/09 03:40:36;;;;;;;18.63;11.55;;;13.60;99.90;;;;;;5071398;28;20039;-67
2023/08/09 03:43:01;;;;;;;23.05;13.52;;;13.50;99.90;;;;;;5068236;28;20044;-67
2023/08/09 03:45:27;;;;;;;27.23;13.20;;;13.50;99.90;;;;;;5064010;28;20047;-67
2023/08/09 03:47:54;;;;;;;24.40;13.10;;;13.40;99.90;;;;;;5066451;28;20040;-67
2023/08/09 03:50:20;;;;;;;26.83;13.55;;;13.40;99.90;;;;;;5070622;28;20515;-67
2023/08/09 03:52:45;;;;;;;21.52;11.60;;;13.30;99.90;;;;;;5070104;28;20036;-67
2023/08/09 03:55:11;;;;;;;32.28;13.70;;;13.30;99.90;;;;;;5053235;28;20162;-67
2023/08/09 03:57:37;;;;;;;19.42;12.00;;;13.30;99.90;;;;;;5063695;28;20486;-67
2023/08/09 04:00:04;;;;;;;23.45;12.40;;;13.30;99.90;;;;;;5068062;28;20043;-67
2023/08/09 04:02:29;;;;;;;22.10;12.68;;;13.30;99.90;;;;;;5050351;28;20124;-67
2023/08/09 04:04:55;;;;;;;20.70;13.38;;;13.30;99.90;;;;;;5052137;28;20123;-67
2023/08/09 04:07:20;;;;;;;20.55;12.65;;;13.20;99.90;;;;;;5068262;28;20036;-67
2023/08/09 04:09:46;;;;;;;15.85;11.73;;;13.20;99.90;;;;;;5069707;28;20040;-67
2023/08/09 04:12:11;;;;;;;23.15;12.57;;;13.20;99.90;;;;;;5060175;28;20113;-67
2023/08/09 04:14:37;;;;;;;25.88;13.80;;;13.20;99.90;;;;;;5065882;28;20047;-67
2023/08/09 04:17:04;;;;;;;33.63;13.27;;;13.20;99.90;;;;;;5063376;28;20036;-67
2023/08/09 04:19:30;;;;;;;17.45;11.20;;;13.10;99.90;;;;;;5063464;28;20040;-66
2023/08/09 04:21:57;;;;;;;19.63;12.15;;;13.20;99.90;;;;;;5068993;28;20032;-66
2023/08/09 04:24:22;;;;;;;17.80;12.73;;;13.20;99.90;;;;;;5063058;28;20119;-67
2023/08/09 04:26:48;;;;;;;20.30;12.70;;;13.20;99.90;;;;;;5068539;28;20107;-67
2023/08/09 04:29:14;;;;;;;19.60;11.88;;;13.20;99.90;;;;;;5058343;28;20398;-67
2023/08/09 04:31:39;;;;;;;18.02;11.48;;;13.20;99.90;;;;;;5069766;28;20040;-67
2023/08/09 04:34:05;;;;;;;17.98;11.90;;;13.20;99.90;;;;;;5072672;28;20083;-67
2023/08/09 04:36:31;;;;;;;17.13;12.05;;;13.20;99.90;;;;;;5068287;28;20037;-67
2023/08/09 04:38:57;;;;;;;21.13;11.82;;;13.30;99.90;;;;;;5072505;28;20120;-67
2023/08/09 04:41:24;;;;;;;18.88;12.15;;;13.30;99.90;;;;;;5074131;28;20048;-67
2023/08/09 04:43:50;;;;;;;20.00;12.30;;;13.20;99.90;;;;;;5072781;28;20522;-67
2023/08/09 04:46:16;;;;;;;25.42;12.40;;;13.20;99.90;;;;;;5057697;28;20123;-67
2023/08/09 04:48:43;;;;;;;23.77;11.85;;;13.30;99.90;;;;;;5074048;28;20050;-67
2023/08/09 04:51:10;;;;;;;27.08;11.07;;;13.20;99.90;;;;;;5074660;28;20037;-67
2023/08/09 04:53:36;;;;;;;18.85;11.18;;;13.20;99.90;;;;;;5073826;28;20502;-67
2023/08/09 04:56:03;;;;;;;19.73;11.63;;;13.20;99.90;;;;;;5071781;28;20036;-67
2023/08/09 04:58:29;;;;;;;20.13;11.32;;;13.20;99.90;;;;;;5065995;28;20459;-67
2023/08/09 05:00:55;;;;;;;22.40;11.32;;;13.20;99.90;;;;;;5074152;28;20445;-67
2023/08/09 05:03:21;;;;;;;21.33;11.32;;;13.20;99.90;;;;;;5074501;28;20127;-67
2023/08/09 05:05:47;;;;;;;21.33;11.23;;;13.20;99.90;;;;;;5073217;28;20407;-67
2023/08/09 05:08:13;;;;;;;17.45;11.85;;;13.20;99.90;;;;;;5065532;28;20039;-67
2023/08/09 05:10:38;;;;;;;20.15;11.68;;;13.20;99.90;;;;;;5065024;28;20399;-67
2023/08/09 05:13:04;;;;;;;17.85;12.25;;;13.20;99.90;;;;;;5070811;28;20032;-67
2023/08/09 05:15:30;;;;;;;13.18;9.88;;;13.30;99.90;;;;;;5067046;28;20085;-67
2023/08/09 05:17:55;;;;;;;15.18;10.90;;;13.30;99.90;;;;;;5065276;28;20083;-67
2023/08/09 05:20:21;;;;;;;15.05;10.88;;;13.30;99.90;;;;;;5073077;28;20053;-67
2023/08/09 05:22:48;;;;;;;15.38;11.45;;;13.40;99.90;;;;;;5072803;28;20125;-67
2023/08/09 05:25:13;;;;;;;17.48;10.82;;;13.40;99.90;;;;;;5073075;28;20048;-67
2023/08/09 05:27:39;;;;;;;16.08;12.38;;;13.40;99.90;;;;;;5073660;28;20051;-67
2023/08/09 05:30:06;;;;;;;16.20;11.77;;;13.40;99.90;;;;;;5071882;28;20041;-67
2023/08/09 05:32:31;;;;;;;16.70;11.80;;;13.40;99.90;;;;;;5072758;28;20048;-67
2023/08/09 05:34:57;;;;;;;15.98;12.05;;;13.40;99.90;;;;;;5053429;28;20041;-67
2023/08/09 05:37:23;;;;;;;15.35;11.38;;;13.50;99.90;;;;;;5063995;28;20033;-67
2023/08/09 05:39:48;;;;;;;17.42;11.45;;;13.50;99.90;;;;;;5069235;28;20040;-67
2023/08/09 05:42:14;;;;;;;16.15;10.30;;;13.50;99.90;;;;;;5071249;28;20028;-67
2023/08/09 05:44:39;;;;;;;15.00;11.05;;;13.50;99.90;;;;;;5062974;28;20521;-67
2023/08/09 05:47:05;;;;;;;13.68;10.48;;;13.60;99.90;;;;;;5066793;28;20037;-67
2023/08/09 05:49:30;;;;;;;15.40;10.88;;;13.50;99.90;;;;;;5072138;28;20082;-67
2023/08/09 05:51:56;;;;;;;12.75;9.90;;;13.50;99.90;;;;;;5072638;28;20033;-67
2023/08/09 05:54:22;;;;;;;14.38;10.48;;;13.60;99.90;;;;;;5071981;28;20029;-67
2023/08/09 05:56:48;;;;;;;13.52;10.00;;;13.60;99.90;;;;;;5071084;28;20497;-67
2023/08/09 05:59:13;;;;;;;13.80;9.70;;;13.60;99.90;;;;;;5063311;28;20033;-67
2023/08/09 06:01:39;;;;;;;12.18;8.95;;;13.70;99.90;;;;;;5060494;28;21193;-67
2023/08/09 06:04:05;;;;;;;11.85;9.85;;;13.70;99.90;;;;;;5060652;28;20411;-67
2023/08/09 06:06:31;;;;;;;12.85;9.80;;;13.70;99.90;;;;;;5063199;28;20032;-67
2023/08/09 06:08:57;;;;;;;13.27;9.88;;;13.80;99.90;;;;;;5065386;28;20036;-67
2023/08/09 06:11:23;;;;;;;13.50;9.20;;;13.80;99.90;;;;;;5064990;28;20413;-67
2023/08/09 06:13:48;;;;;;;12.10;9.45;;;13.80;99.90;;;;;;5065422;28;20036;-67
2023/08/09 06:16:14;;;;;;;12.68;9.35;;;13.90;99.90;;;;;;5066799;28;20072;-64
2023/08/09 06:18:40;;;;;;;10.57;9.02;;;13.90;99.90;;;;;;5063031;28;20032;-64
2023/08/09 06:21:06;;;;;;;12.73;8.82;;;13.80;99.90;;;;;;5070394;28;20040;-67
2023/08/09 06:23:31;;;;;;;11.82;8.27;;;14.00;99.90;;;;;;5118309;22;20046;-63
2023/08/09 06:25:58;;;;;;;10.88;8.80;;;14.10;99.90;;;;;;5097028;28;20073;-64
2023/08/09 06:28:24;;;;;;;12.35;8.95;;;14.20;99.90;;;;;;5100440;28;20172;-64
2023/08/09 06:30:50;;;;;;;10.70;8.10;;;14.20;99.90;;;;;;5110619;28;20096;-64
2023/08/09 06:33:16;;;;;;;10.55;8.35;;;14.40;99.90;;;;;;5107562;28;20050;-65
2023/08/09 06:35:42;;;;;;;10.38;8.68;;;14.40;99.90;;;;;;5100592;28;20119;-64
2023/08/09 06:38:08;;;;;;;11.00;8.00;;;14.60;99.90;;;;;;5102155;28;20137;-63
2023/08/09 06:40:34;;;;;;;9.73;8.25;;;14.70;99.90;;;;;;5107218;28;20032;-64
2023/08/09 06:42:59;;;;;;;11.18;8.60;;;14.80;99.90;;;;;;5096125;28;20066;-64
2023/08/09 06:45:25;;;;;;;10.68;8.73;;;14.80;99.90;;;;;;5112447;28;20063;-64
2023/08/09 06:47:50;;;;;;;10.57;7.65;;;14.90;99.90;;;;;;5110887;28;20077;-64
2023/08/09 06:50:16;;;;;;;10.50;8.10;;;15.00;99.90;;;;;;5110268;28;20039;-64
2023/08/09 06:52:42;;;;;;;10.80;7.45;;;15.10;99.90;;;;;;5105919;28;20081;-64
2023/08/09 06:55:08;;;;;;;9.35;7.55;;;15.20;99.90;;;;;;5099451;28;20125;-64
2023/08/09 06:57:35;;;;;;;9.35;7.35;;;15.30;99.90;;;;;;5097008;28;20123;-64
2023/08/09 07:00:02;;;;;;;8.35;7.35;;;15.40;99.90;;;;;;5102281;28;20032;-64
2023/08/09 07:02:28;;;;;;;8.07;6.93;;;15.40;99.90;;;;;;5099207;28;20115;-64
2023/08/09 07:04:54;;;;;;;7.95;6.60;;;15.50;99.90;;;;;;5107360;28;20066;-64
2023/08/09 07:07:21;;;;;;;7.75;6.75;;;15.60;99.90;;;;;;5098462;28;20039;-64
2023/08/09 07:09:46;;;;;;;8.65;6.88;;;15.70;99.90;;;;;;5103356;28;20056;-64
2023/08/09 07:12:12;;;;;;;6.70;5.95;;;15.70;99.90;;;;;;5096632;28;20035;-64
2023/08/09 07:14:38;;;;;;;9.43;7.40;;;15.80;99.90;;;;;;5102635;28;20100;-64
2023/08/09 07:17:04;;;;;;;7.15;6.22;;;15.90;99.90;;;;;;5104649;28;20035;-64
2023/08/09 07:19:30;;;;;;;8.13;6.82;;;15.90;99.90;;;;;;5102600;28;20478;-64
2023/08/09 07:21:56;;;;;;;8.88;6.25;;;16.00;99.90;;;;;;5101577;28;20034;-64
2023/08/09 07:24:21;;;;;;;7.30;6.43;;;16.20;99.90;;;;;;5101059;28;20040;-65
2023/08/09 07:26:47;;;;;;;8.43;6.63;;;16.30;99.90;;;;;;5102453;28;20031;-66
2023/08/09 07:29:13;;;;;;;7.43;6.18;;;16.40;99.90;;;;;;5105398;28;20122;-65
2023/08/09 07:31:38;;;;;;;8.68;7.07;;;16.50;99.90;;;;;;5102151;28;20381;-65
2023/08/09 07:34:04;;;;;;;8.30;6.53;;;16.60;99.90;;;;;;5100881;28;20032;-69
2023/08/09 07:36:30;;;;;;;6.82;6.03;;;16.70;99.90;;;;;;5084752;28;20488;-69
2023/08/09 07:38:59;;;;;;;7.93;6.30;;;16.90;99.90;;;;;;5098421;28;20051;-70
2023/08/09 07:41:25;;;;;;;7.38;6.07;;;17.00;99.90;;;;;;5095469;28;20479;-69
2023/08/09 07:43:50;;;;;;;6.68;5.70;;;17.20;99.90;;;;;;5098054;28;20036;-70
2023/08/09 07:46:16;;;;;;;7.13;6.22;;;17.20;99.90;;;;;;5087713;28;20493;-70
2023/08/09 07:48:42;;;;;;;9.02;6.35;;;17.20;99.90;;;;;;5103164;28;20077;-69
2023/08/09 07:51:11;;;;;;;6.78;5.93;;;17.40;99.90;;;;;;5100146;28;20093;-69
2023/08/09 07:53:40;;;;;;;7.30;5.47;;;17.50;99.90;;;;;;5101199;28;20036;-69
2023/08/09 07:56:06;;;;;;;6.93;5.43;;;17.50;99.90;;;;;;5097593;28;20054;-69
2023/08/09 07:58:31;;;;;;;5.93;5.25;;;17.60;99.90;;;;;;5098941;28;20035;-68
2023/08/09 08:00:58;;;;;;;8.27;5.22;;;17.60;99.90;;;;;;5101884;28;20032;-68
2023/08/09 08:03:23;;;;;;;9.23;5.63;;;17.70;99.90;;;;;;5104450;28;20111;-68
2023/08/09 08:05:49;;;;;;;6.65;5.25;;;17.80;99.90;;;;;;5102679;28;20122;-68
2023/08/09 08:08:17;;;;;;;6.85;5.40;;;17.80;99.90;;;;;;5106963;28;20032;-69
2023/08/09 08:10:43;;;;;;;8.77;4.90;;;17.90;99.90;;;;;;5105117;28;20374;-69
2023/08/09 08:13:09;;;;;;;6.65;5.13;;;18.10;99.90;;;;;;5106337;28;20035;-68
2023/08/09 08:15:36;;;;;;;6.57;5.35;;;18.10;99.90;;;;;;5106463;28;20081;-69
2023/08/09 08:18:03;;;;;;;6.70;5.65;;;18.30;99.90;;;;;;5113728;28;20035;-69
2023/08/09 08:20:29;;;;;;;7.15;5.15;;;18.30;99.90;;;;;;5108726;28;20040;-69
2023/08/09 08:22:55;;;;;;;5.28;4.20;;;18.40;99.90;;;;;;5107967;28;20084;-69
2023/08/09 08:25:21;;;;;;;6.75;4.35;;;18.50;99.90;;;;;;5106765;28;20046;-68
2023/08/09 08:27:47;;;;;;;6.05;4.35;;;18.60;99.90;;;;;;5108518;28;20050;-69
2023/08/09 08:30:18;;;;;;;5.68;4.07;;;18.80;99.90;;;;;;5107413;28;20461;-68
2023/08/09 08:32:44;;;;;;;6.50;4.40;;;18.80;99.90;;;;;;5102957;28;20077;-70
2023/08/09 08:35:13;;;;;;;6.82;4.28;;;19.00;99.90;;;;;;5099486;28;20079;-68
2023/08/09 08:37:40;;;;;;;5.63;3.72;;;19.10;99.90;;;;;;5098996;28;20092;-69
2023/08/09 08:40:17;;;;;;;4.32;2.90;;;19.10;99.90;;;;;;5111580;28;20038;-69
2023/08/09 08:42:44;;;;;;;4.80;3.05;;;19.20;99.90;;;;;;5102996;28;20430;-69
2023/08/09 08:45:11;;;;;;;5.57;2.45;;;19.20;99.90;;;;;;5102149;28;20036;-69
2023/08/09 08:47:42;;;;;;;3.50;2.38;;;19.30;99.90;;;;;;5104119;28;20043;-69
2023/08/09 08:50:10;;;;;;;9.18;2.70;;;19.50;99.90;;;;;;5104224;28;20051;-69
2023/08/09 08:52:39;;;;;;;4.70;2.58;;;19.60;99.90;;;;;;5109563;28;20036;-69
2023/08/09 08:55:06;;;;;;;3.03;2.45;;;19.80;99.90;;;;;;5104958;28;20039;-69
2023/08/09 08:57:33;;;;;;;4.05;2.40;;;19.90;99.90;;;;;;5106957;28;20164;-68
2023/08/09 09:00:02;;;;;;;2.35;2.08;;;19.90;99.90;;;;;;5103408;28;20903;-68
2023/08/09 09:02:27;;;;;;;3.78;2.38;;;19.90;99.90;;;;;;5103198;28;20389;-68
2023/08/09 09:04:53;;;;;;;2.03;1.80;;;19.80;99.90;;;;;;5110529;28;20122;-69
2023/08/09 09:07:19;;;;;;;2.80;1.67;;;19.90;99.90;;;;;;5106175;28;20047;-70
2023/08/09 09:10:01;;;;;;;2.35;1.50;;;19.90;99.90;;;;;;5115089;28;20044;-69
2023/08/09 09:12:26;;;;;;;2.97;1.80;;;20.00;99.90;;;;;;5113587;28;20060;-70
2023/08/09 09:14:52;;;;;;;3.50;2.38;;;20.00;99.90;;;;;;5112820;28;20595;-71
2023/08/09 09:17:21;;;;;;;4.82;2.30;;;20.20;99.90;;;;;;5110520;28;20034;-69
2023/08/09 09:19:48;;;;;;;2.45;1.02;;;20.20;99.90;;;;;;5105627;28;20039;-70
2023/08/09 09:22:28;;;;;;;2.13;0.93;;;20.20;99.90;;;;;;5109113;28;20038;-71
2023/08/09 09:24:58;;;;;;;3.05;1.00;;;20.20;99.90;;;;;;5107219;28;20039;-70
2023/08/09 09:27:31;;;;;;;1.40;0.93;;;20.20;99.90;;;;;;5103905;28;20093;-69
2023/08/09 09:30:12;;;;;;;5.00;1.35;;;20.30;99.90;;;;;;5104790;28;20047;-68
2023/08/09 09:32:58;;;;;;;2.17;1.00;;;20.30;99.90;;;;;;5097826;28;20042;-70
2023/08/09 09:35:26;;;;;;;4.07;1.60;;;20.40;99.90;;;;;;5103702;28;20047;-70
2023/08/09 09:37:53;;;;;;;3.03;1.48;;;20.50;99.90;;;;;;5110375;28;20484;-70
2023/08/09 09:40:24;;;;;;;3.40;1.92;;;20.50;99.90;;;;;;5106344;28;20504;-70
2023/08/09 09:42:53;;;;;;;4.35;2.10;;;20.60;99.90;;;;;;5099511;28;20032;-69
2023/08/09 09:45:23;;;;;;;3.35;1.80;;;20.60;99.90;;;;;;5102956;28;20044;-70
2023/08/09 09:47:49;;;;;;;2.67;1.70;;;20.70;99.90;;;;;;5106279;28;20032;-69
2023/08/09 09:50:16;;;;;;;2.17;1.23;;;20.70;99.90;;;;;;5101015;28;20032;-71
2023/08/09 09:52:44;;;;;;;2.90;1.00;;;20.70;99.90;;;;;;5102501;27;20042;-69
2023/08/09 09:55:10;;;;;;;3.00;0.80;;;20.80;99.90;;;;;;5107919;28;20486;-68
2023/08/09 09:57:36;;;;;;;1.52;0.80;;;21.00;99.90;;;;;;5107613;28;20100;-70
2023/08/09 10:00:08;;;;;;;1.70;1.08;;;21.20;99.90;;;;;;5093993;28;20036;-69
2023/08/09 10:02:48;;;;;;;1.30;0.85;;;21.30;99.90;;;;;;5103713;28;20040;-69
2023/08/09 10:05:36;;;;;;;2.92;1.10;;;21.10;99.90;;;;;;5094783;28;20047;-69
2023/08/09 10:08:12;;;;;;;2.30;0.80;;;20.80;99.90;;;;;;5103127;28;20036;-69
2023/08/09 10:10:39;;;;;;;1.55;1.10;;;20.50;99.90;;;;;;5091840;28;20044;-69
2023/08/09 10:13:07;;;;;;;3.20;1.17;;;20.30;99.90;;;;;;5109419;28;20100;-70
2023/08/09 10:15:46;;;;;;;1.98;0.88;;;20.30;99.90;;;;;;5105285;28;20046;-70
2023/08/09 10:18:31;;;;;;;1.83;0.82;;;20.40;99.90;;;;;;5108863;28;20064;-70
2023/08/09 10:20:59;;;;;;;4.88;1.10;;;20.50;99.90;;;;;;5099402;28;20032;-71
2023/08/09 10:23:28;;;;;;;3.58;1.10;;;20.70;99.90;;;;;;5109561;28;20035;-70
2023/08/09 10:25:55;;;;;;;3.55;1.00;;;20.90;99.90;;;;;;5111650;28;20053;-71
2023/08/09 10:28:43;;;;;;;3.38;1.35;;;20.90;99.90;;;;;;5103029;28;20043;-71
2023/08/09 10:31:09;;;;;;;4.72;1.30;;;20.60;99.90;;;;;;5081533;28;20105;-71
2023/08/09 10:33:35;;;;;;;2.33;0.98;;;20.30;99.90;;;;;;5097010;28;20040;-71
2023/08/09 10:36:00;;;;;;;1.38;0.85;;;20.10;99.90;;;;;;5101077;28;20458;-71
2023/08/09 10:38:32;;;;;;;2.85;1.10;;;20.00;99.90;;;;;;5092435;28;20032;-71
2023/08/09 10:41:06;;;;;;;3.38;0.90;;;20.00;99.90;;;;;;5106039;28;20066;-70
2023/08/09 10:43:34;;;;;;;2.58;1.15;;;20.00;99.90;;;;;;5098411;28;20084;-71
2023/08/09 10:46:17;;;;;;;2.42;1.00;;;20.20;99.90;;;;;;5111794;28;20066;-71
2023/08/09 10:48:51;;;;;;;1.55;0.80;;;20.60;99.90;;;;;;5102959;28;20031;-71
2023/08/09 10:51:18;;;;;;;2.60;1.13;;;20.80;99.90;;;;;;5108986;28;20096;-72
2023/08/09 10:54:04;;;;;;;1.63;0.85;;;20.90;99.90;;;;;;5096695;28;20044;-71
2023/08/09 10:56:34;;;;;;;1.80;0.90;;;21.10;99.90;;;;;;5105176;28;20040;-72
2023/08/09 10:59:13;;;;;;;2.25;1.00;;;21.30;99.90;;;;;;5100988;28;20043;-72
2023/08/09 11:01:40;;;;;;;2.40;0.90;;;21.60;99.90;;;;;;5103064;28;20040;-72
2023/08/09 11:04:43;;;;;;;1.95;1.00;;;21.80;99.90;;;;;;5109107;28;20119;-72
2023/08/09 11:07:19;;;;;;;2.17;0.93;;;21.90;99.90;;;;;;5097791;28;20075;-72
2023/08/09 11:09:45;;;;;;;1.88;1.20;;;22.00;99.90;;;;;;5101520;28;20568;-72
2023/08/09 11:12:14;;;;;;;3.85;0.90;;;22.00;99.90;;;;;;5092715;28;20106;-71
2023/08/09 11:14:40;;;;;;;2.78;1.02;;;22.00;99.10;;;;;;5091917;28;20043;-70
2023/08/09 11:17:12;;;;;;;2.75;0.82;;;21.90;99.00;;;;;;5096207;28;20108;-71
2023/08/09 11:19:38;;;;;;;2.38;0.80;;;21.90;98.10;;;;;;5107189;28;20497;-71
2023/08/09 11:22:04;;;;;;;2.38;0.90;;;22.00;98.40;;;;;;5107084;28;20074;-72
2023/08/09 11:24:29;;;;;;;2.67;0.90;;;22.00;96.80;;;;;;5105961;28;20064;-73
2023/08/09 11:26:57;;;;;;;2.28;0.95;;;22.00;96.90;;;;;;5104203;28;20451;-70
2023/08/09 11:29:28;;;;;;;3.88;1.35;;;22.00;96.30;;;;;;5106764;28;20111;-71
2023/08/09 11:31:56;;;;;;;4.38;1.15;;;22.20;97.00;;;;;;5099401;28;20118;-71
2023/08/09 11:34:23;;;;;;;3.03;1.23;;;22.20;96.80;;;;;;5100270;28;20406;-71
2023/08/09 11:36:52;;;;;;;3.17;0.93;;;22.00;97.60;;;;;;5107374;28;20066;-70
2023/08/09 11:39:29;;;;;;;2.50;0.90;;;22.00;97.70;;;;;;5104557;28;20043;-70
2023/08/09 11:41:57;;;;;;;1.92;1.10;;;22.10;98.80;;;;;;5104492;28;20070;-71
2023/08/09 11:44:27;;;;;;;3.17;0.90;;;22.30;99.40;;;;;;5102535;28;20036;-70
2023/08/09 11:46:54;;;;;;;1.73;0.70;;;22.40;98.50;;;;;;5099605;28;20055;-70
2023/08/09 11:49:32;;;;;;;1.48;0.93;;;22.40;97.50;;;;;;5097950;28;20102;-69
2023/08/09 11:52:00;;;;;;;1.40;0.90;;;22.40;95.90;;;;;;5099350;28;20093;-71
2023/08/09 11:54:29;;;;;;;1.92;0.90;;;22.40;96.80;;;;;;5083473;28;20036;-71
2023/08/09 11:56:55;;;;;;;1.40;1.08;;;22.30;95.90;;;;;;5079519;28;20040;-70
2023/08/09 11:59:24;;;;;;;1.25;1.10;;;22.40;96.80;;;;;;5098688;28;20035;-70
2023/08/09 12:01:57;;;;;;;1.10;0.82;;;22.40;96.60;;;;;;5098150;28;20036;-72
2023/08/09 12:04:25;;;;;;;1.80;1.10;;;22.50;97.30;;;;;;5098788;28;20371;-70
2023/08/09 12:06:54;;;;;;;2.67;1.00;;;22.50;97.70;;;;;;5099015;28;20497;-70
2023/08/09 12:09:34;;;;;;;1.98;1.00;;;22.40;97.10;;;;;;5111456;28;20036;-69
2023/08/09 12:12:10;;;;;;;1.88;1.17;;;22.10;96.00;;;;;;5107268;28;20131;-70
2023/08/09 12:14:36;;;;;;;2.92;1.20;;;21.80;97.20;;;;;;5106235;28;20040;-70
2023/08/09 12:17:03;;;;;;;1.73;0.80;;;21.60;97.40;;;;;;5102097;28;20047;-70
2023/08/09 12:19:29;;;;;;;1.70;1.10;;;21.50;98.80;;;;;;5109426;28;20043;-69
2023/08/09 12:24:23;;;;;;;2.63;0.98;;;21.30;99.90;;;;;;5064752;28;20272;-66
2023/08/09 12:26:48;;;;;;;1.52;0.90;;;21.20;99.70;;;;;;5068361;28;20041;-66
2023/08/09 12:29:14;;;;;;;2.80;1.20;;;21.10;99.60;;;;;;5067268;28;20085;-66
2023/08/09 12:31:40;;;;;;;2.35;0.90;;;21.10;99.80;;;;;;5070729;28;20041;-67
2023/08/09 12:34:08;;;;;;;2.00;1.38;;;21.30;99.90;;;;;;5070327;28;20090;-67
2023/08/09 12:36:33;;;;;;;2.92;1.35;;;21.60;99.90;;;;;;5069165;28;20044;-68
2023/08/09 12:38:59;;;;;;;1.80;1.27;;;21.70;99.70;;;;;;5064764;28;20040;-68
2023/08/09 12:41:25;;;;;;;2.92;1.30;;;21.60;99.10;;;;;;5067640;28;20082;-66